Time;durP1;ratioP1;P1;durP2;ratioP2;P2;SDS_P1;SDS_P2;PMS_P1;PMS_P2;Temp;Humidity;BMP_temperature;BMP_pressure;BME280_temperature;BME280_humidity;BME280_pressure;Samples;Min_cycle;Max_cycle;Signal;HPM_P1;HPM_P2
2022/11/22 00:02:05;;;;;;;0.80;0.80;;;5.50;99.90;4.70;93945.00;;;;5093534;28;20272;-66
2022/11/22 00:04:33;;;;;;;1.03;1.03;;;5.60;99.90;4.60;93950.00;;;;5092608;28;20206;-66
2022/11/22 00:07:00;;;;;;;0.80;0.80;;;5.50;99.90;4.70;93948.00;;;;5093466;28;20545;-68
2022/11/22 00:09:29;;;;;;;3.20;2.30;;;5.50;99.90;4.70;93936.00;;;;5093598;28;20299;-66
2022/11/22 00:11:56;;;;;;;0.63;0.63;;;5.60;99.90;4.80;93943.00;;;;5093541;28;20199;-66
2022/11/22 00:14:22;;;;;;;0.53;0.53;;;5.50;99.90;4.70;93926.00;;;;5093659;28;20263;-66
2022/11/22 00:16:49;;;;;;;0.70;0.70;;;5.60;99.90;4.70;93935.00;;;;5093525;28;20221;-68
2022/11/22 00:19:15;;;;;;;1.07;1.07;;;5.60;99.90;4.70;93932.00;;;;5093574;28;20214;-68
2022/11/22 00:21:42;;;;;;;1.23;1.23;;;5.50;99.90;4.40;93944.00;;;;5093803;28;20280;-65
2022/11/22 00:24:11;;;;;;;0.80;0.80;;;5.50;99.90;4.70;93933.00;;;;5093436;28;20660;-66
2022/11/22 00:26:38;;;;;;;0.50;0.50;;;5.50;99.90;4.80;93938.00;;;;5075786;28;20701;-69
2022/11/22 00:29:05;;;;;;;0.60;0.60;;;;;4.80;93933.00;;;;5093574;28;20195;-67
2022/11/22 00:31:32;;;;;;;1.27;1.10;;;5.60;99.90;4.80;93933.00;;;;5093460;28;20258;-68
2022/11/22 00:33:59;;;;;;;1.00;1.00;;;5.50;99.90;4.70;93945.00;;;;5093404;28;20214;-68
2022/11/22 00:36:28;;;;;;;0.90;0.90;;;;;4.70;93948.00;;;;5093217;28;20220;-64
2022/11/22 00:38:54;;;;;;;2.10;1.57;;;5.60;99.90;4.80;93947.00;;;;5075307;28;20222;-66
2022/11/22 00:41:23;;;;;;;0.67;0.67;;;5.60;99.90;4.90;93949.00;;;;5093272;28;20314;-65
2022/11/22 00:43:50;;;;;;;0.60;0.60;;;5.70;99.90;4.90;93950.00;;;;5093064;28;20202;-65
2022/11/22 00:46:16;;;;;;;0.80;0.80;;;5.70;99.90;5.00;93959.00;;;;5092937;28;20229;-65
2022/11/22 00:48:43;;;;;;;2.40;2.20;;;5.70;99.90;4.90;93968.00;;;;5093181;28;20524;-65
2022/11/22 00:51:09;;;;;;;0.57;0.57;;;5.80;99.90;5.00;93986.00;;;;5091882;28;20224;-65
2022/11/22 00:53:35;;;;;;;0.60;0.60;;;5.70;99.90;4.90;93978.00;;;;5092825;28;20229;-65
2022/11/22 00:56:02;;;;;;;1.30;1.20;;;5.70;99.90;4.90;93987.00;;;;5092887;28;20194;-64
2022/11/22 00:58:28;;;;;;;0.80;0.80;;;5.70;99.90;5.00;93986.00;;;;5092908;28;20206;-65
2022/11/22 01:00:55;;;;;;;1.13;1.13;;;5.80;99.90;5.00;93985.00;;;;5092951;28;20222;-65
2022/11/22 01:03:22;;;;;;;0.70;0.70;;;5.80;99.90;5.00;93998.00;;;;5093018;28;20204;-65
2022/11/22 01:05:48;;;;;;;0.90;0.90;;;5.70;99.90;4.90;93999.00;;;;5092999;28;20199;-67
2022/11/22 01:08:14;;;;;;;0.70;0.70;;;5.70;99.90;4.90;94002.00;;;;5092849;28;20256;-65
2022/11/22 01:10:41;;;;;;;0.87;0.87;;;5.70;99.90;5.00;93998.00;;;;5092988;28;20201;-65
2022/11/22 01:13:12;;;;;;;0.97;0.97;;;5.70;99.90;5.00;94010.00;;;;5093105;28;20195;-65
2022/11/22 01:15:40;;;;;;;0.80;0.80;;;5.80;99.90;5.10;93993.00;;;;5094910;28;20210;-65
2022/11/22 01:18:07;;;;;;;1.33;1.23;;;5.90;99.90;5.10;93989.00;;;;5096217;28;20196;-67
2022/11/22 01:20:34;;;;;;;0.60;0.60;;;5.90;99.90;5.10;93999.00;;;;5096082;28;20218;-67
2022/11/22 01:23:02;;;;;;;0.70;0.70;;;5.90;99.90;5.00;94003.00;;;;5096098;28;20194;-65
2022/11/22 01:25:29;;;;;;;1.00;1.00;;;5.80;99.90;5.10;94000.00;;;;5096410;28;20644;-65
2022/11/22 01:27:55;;;;;;;0.80;0.80;;;5.90;99.90;5.00;94009.00;;;;5095907;28;20226;-65
2022/11/22 01:30:22;;;;;;;0.60;0.60;;;5.80;99.90;5.10;94012.00;;;;5094919;28;20214;-64
2022/11/22 01:32:49;;;;;;;0.97;0.97;;;5.80;99.90;5.00;94009.00;;;;5095928;28;20199;-64
2022/11/22 01:35:16;;;;;;;1.00;1.00;;;5.80;99.90;5.00;94013.00;;;;5095637;28;20222;-64
2022/11/22 01:37:42;;;;;;;0.80;0.80;;;5.80;99.90;5.00;94015.00;;;;5095766;28;20653;-64
2022/11/22 01:40:11;;;;;;;0.73;0.73;;;5.80;99.90;5.10;94022.00;;;;5095821;28;20220;-64
2022/11/22 01:42:49;;;;;;;1.10;1.10;;;5.90;99.90;5.00;94019.00;;;;5095639;28;20521;-67
2022/11/22 01:45:43;;;;;;;0.87;0.87;;;5.90;99.90;5.20;94031.00;;;;5095805;28;20214;-64
2022/11/22 01:48:32;;;;;;;0.93;0.93;;;6.00;99.90;5.10;94037.00;;;;5094882;28;20654;-64
2022/11/22 01:51:06;;;;;;;0.50;0.50;;;5.90;99.90;5.00;94030.00;;;;5095915;28;20689;-65
2022/11/22 01:53:36;;;;;;;0.73;0.73;;;5.80;99.90;4.90;94034.00;;;;5095669;28;20282;-65
2022/11/22 01:56:08;;;;;;;0.73;0.73;;;5.80;99.90;5.00;94050.00;;;;5095624;28;20663;-65
2022/11/22 01:58:37;;;;;;;0.60;0.60;;;5.90;99.90;5.00;94044.00;;;;5095481;28;20579;-65
2022/11/22 02:01:04;;;;;;;0.60;0.60;;;5.80;99.90;5.10;94038.00;;;;5095397;28;20238;-66
2022/11/22 02:03:33;;;;;;;0.90;0.90;;;5.80;99.90;5.00;94035.00;;;;5095404;28;20205;-66
2022/11/22 02:06:05;;;;;;;0.60;0.60;;;5.90;99.90;5.10;94033.00;;;;5095439;28;20285;-65
2022/11/22 02:08:41;;;;;;;1.00;1.00;;;5.90;99.90;5.10;94038.00;;;;5095500;28;20218;-65
2022/11/22 02:11:11;;;;;;;0.77;0.77;;;5.90;99.90;5.00;94023.00;;;;5094597;28;20200;-64
2022/11/22 02:13:43;;;;;;;0.97;0.97;;;5.80;99.90;5.00;94039.00;;;;5095330;28;20217;-65
2022/11/22 02:16:11;;;;;;;0.70;0.70;;;5.80;99.90;5.10;94039.00;;;;5095502;28;20213;-65
2022/11/22 02:18:38;;;;;;;0.83;0.83;;;5.90;99.90;5.20;94041.00;;;;5095222;28;20205;-66
2022/11/22 02:21:07;;;;;;;0.83;0.83;;;5.80;99.90;5.00;94023.00;;;;5095296;28;20223;-66
2022/11/22 02:23:55;;;;;;;2.10;1.03;;;5.80;99.90;5.10;94033.00;;;;5095217;28;20207;-65
2022/11/22 02:26:27;;;;;;;0.70;0.70;;;5.80;99.90;5.10;94044.00;;;;5092149;28;20229;-65
2022/11/22 02:28:59;;;;;;;0.80;0.80;;;5.80;99.90;5.00;94047.00;;;;5094102;28;20206;-65
2022/11/22 02:31:37;;;;;;;11.00;1.70;;;5.70;99.90;4.80;94045.00;;;;5095115;28;20198;-66
2022/11/22 02:34:03;;;;;;;0.60;0.60;;;5.70;99.90;4.90;94058.00;;;;5094976;28;20253;-65
2022/11/22 02:36:36;;;;;;;0.60;0.60;;;5.70;99.90;4.90;94062.00;;;;5094807;28;20635;-65
2022/11/22 02:39:03;;;;;;;0.57;0.57;;;5.60;99.90;4.90;94071.00;;;;5094852;28;20187;-65
2022/11/22 02:41:32;;;;;;;0.70;0.70;;;5.60;99.90;4.70;94067.00;;;;5094722;28;20219;-64
2022/11/22 02:43:58;;;;;;;9.53;1.07;;;5.50;99.90;4.90;94057.00;;;;5094755;28;20197;-65
2022/11/22 02:46:25;;;;;;;0.60;0.60;;;5.70;99.90;4.90;94057.00;;;;5094701;28;20292;-65
2022/11/22 02:48:51;;;;;;;0.60;0.60;;;5.70;99.90;4.90;94062.00;;;;5094668;28;20211;-65
2022/11/22 02:51:19;;;;;;;1.13;1.10;;;5.60;99.90;4.90;94063.00;;;;5094661;28;20219;-67
2022/11/22 02:53:48;;;;;;;0.60;0.60;;;5.60;99.90;4.90;94059.00;;;;5094676;28;20301;-65
2022/11/22 02:56:15;;;;;;;0.60;0.60;;;5.70;99.90;4.90;94071.00;;;;5094923;28;20279;-65
2022/11/22 02:58:43;;;;;;;0.70;0.70;;;5.70;99.90;4.90;94082.00;;;;5093588;28;20230;-65
2022/11/22 03:01:10;;;;;;;1.13;1.13;;;5.70;99.90;4.80;94080.00;;;;5094617;28;20682;-65
2022/11/22 03:03:37;;;;;;;0.60;0.60;;;5.60;99.90;4.90;94079.00;;;;5094520;28;20199;-67
2022/11/22 03:06:04;;;;;;;0.73;0.73;;;5.60;99.90;4.90;94076.00;;;;5094696;28;20186;-65
2022/11/22 03:08:30;;;;;;;0.70;0.70;;;5.60;99.90;4.80;94083.00;;;;5076720;28;20195;-65
2022/11/22 03:10:57;;;;;;;1.17;1.17;;;5.70;99.90;4.80;94078.00;;;;5094331;28;20550;-65
2022/11/22 03:13:24;;;;;;;0.70;0.70;;;5.60;99.90;4.80;94077.00;;;;5094280;28;20294;-66
2022/11/22 03:15:51;;;;;;;0.60;0.60;;;5.70;99.90;4.80;94077.00;;;;5076575;28;20262;-65
2022/11/22 03:18:18;;;;;;;1.40;1.30;;;5.60;99.90;4.70;94085.00;;;;5094214;28;20196;-65
2022/11/22 03:20:44;;;;;;;0.90;0.90;;;5.60;99.90;4.80;94087.00;;;;5093320;28;20218;-65
2022/11/22 03:23:10;;;;;;;0.60;0.60;;;5.60;99.90;4.70;94087.00;;;;5094128;28;20227;-65
2022/11/22 03:25:37;;;;;;;1.07;1.07;;;5.50;99.90;4.70;94068.00;;;;5094118;28;20194;-65
2022/11/22 03:28:04;;;;;;;1.90;1.07;;;5.60;99.90;4.70;94091.00;;;;5076527;28;20608;-65
2022/11/22 03:30:33;;;;;;;0.50;0.50;;;5.60;99.90;4.80;94095.00;;;;5076151;28;20215;-64
2022/11/22 03:33:00;;;;;;;1.30;1.17;;;5.60;99.90;4.80;94101.00;;;;5093983;28;20624;-64
2022/11/22 03:35:29;;;;;;;0.70;0.70;;;5.50;99.90;4.70;94100.00;;;;5094041;28;20604;-64
2022/11/22 03:37:55;;;;;;;0.80;0.80;;;5.50;99.90;4.70;94108.00;;;;5093800;28;20210;-65
2022/11/22 03:40:21;;;;;;;0.60;0.60;;;5.50;99.90;4.60;94097.00;;;;5093887;28;20279;-64
2022/11/22 03:42:48;;;;;;;0.87;0.87;;;5.50;99.90;4.60;94103.00;;;;5093953;28;20230;-65
2022/11/22 03:45:14;;;;;;;0.60;0.60;;;5.40;99.90;4.50;94102.00;;;;5093999;28;20195;-67
2022/11/22 03:47:41;;;;;;;1.03;1.03;;;5.40;99.90;4.50;94087.00;;;;5093011;28;20238;-65
2022/11/22 03:50:09;;;;;;;0.73;0.73;;;5.40;99.90;4.50;94085.00;;;;5093131;28;20209;-64
2022/11/22 03:52:36;;;;;;;0.60;0.60;;;5.40;99.90;4.50;94075.00;;;;5093917;28;20206;-65
2022/11/22 03:55:02;;;;;;;0.60;0.60;;;5.40;99.90;4.70;94095.00;;;;5093806;28;20197;-65
2022/11/22 03:57:29;;;;;;;0.83;0.83;;;5.40;99.90;4.60;94099.00;;;;5093735;28;20210;-66
2022/11/22 03:59:55;;;;;;;0.60;0.60;;;5.50;99.90;4.60;94104.00;;;;5093474;28;20227;-67
2022/11/22 04:02:21;;;;;;;0.70;0.70;;;5.40;99.90;4.70;94111.00;;;;5093612;28;20195;-67
2022/11/22 04:04:48;;;;;;;0.67;0.67;;;5.50;99.90;4.70;94114.00;;;;5094209;28;20223;-65
2022/11/22 04:07:15;;;;;;;0.80;0.80;;;5.50;99.90;4.60;94110.00;;;;5093627;28;20211;-65
2022/11/22 04:09:41;;;;;;;0.60;0.60;;;5.50;99.90;4.60;94116.00;;;;5093563;28;20199;-65
2022/11/22 04:12:10;;;;;;;0.70;0.70;;;5.40;99.90;4.70;94108.00;;;;5093555;28;20209;-65
2022/11/22 04:22:44;;;;;;;0.50;0.50;;;5.40;99.90;4.60;94098.00;;;;5074546;28;20301;-65
2022/11/22 04:25:13;;;;;;;0.60;0.60;;;5.40;99.90;4.60;94097.00;;;;5093307;28;20191;-65
2022/11/22 04:27:40;;;;;;;1.60;1.37;;;5.40;99.90;4.50;94098.00;;;;5093310;28;20275;-65
2022/11/22 04:30:07;;;;;;;0.50;0.50;;;5.40;99.90;4.50;94082.00;;;;5093312;28;20200;-64
2022/11/22 04:32:45;;;;;;;1.23;1.23;;;5.40;99.90;4.50;94082.00;;;;5093412;28;20235;-65
2022/11/22 04:35:14;;;;;;;0.60;0.60;;;5.40;99.90;4.50;94098.00;;;;5093415;28;20222;-64
2022/11/22 04:37:41;;;;;;;0.60;0.60;;;5.40;99.90;4.50;94109.00;;;;5093357;28;20191;-65
2022/11/22 04:40:10;;;;;;;0.60;0.60;;;5.30;99.90;4.40;94100.00;;;;5093286;28;20219;-65
2022/11/22 04:45:21;;;;;;;0.90;0.90;;;5.30;99.90;4.30;94108.00;;;;5093341;28;20212;-67
2022/11/22 04:48:00;;;;;;;1.00;1.00;;;5.20;99.90;4.20;94103.00;;;;5093286;28;20208;-67
2022/11/22 04:53:15;;;;;;;1.87;1.33;;;5.10;99.90;4.10;94096.00;;;;5096752;28;20191;-67
2022/11/22 04:55:45;;;;;;;1.00;1.00;;;5.10;99.90;4.20;94104.00;;;;5096589;28;20230;-67
2022/11/22 04:58:12;;;;;;;0.73;0.73;;;5.10;99.90;4.20;94102.00;;;;5095792;28;20279;-65
2022/11/22 05:00:39;;;;;;;0.70;0.70;;;5.10;99.90;4.20;94111.00;;;;5096097;28;20238;-65
2022/11/22 05:03:07;;;;;;;4.37;0.90;;;5.10;99.90;4.20;94112.00;;;;5096427;28;20233;-67
2022/11/22 05:05:36;;;;;;;0.73;0.73;;;5.00;99.90;4.20;94124.00;;;;5096344;28;20236;-65
2022/11/22 05:08:03;;;;;;;1.23;1.00;;;5.00;99.90;4.40;94112.00;;;;5096439;28;20218;-65
2022/11/22 05:10:55;;;;;;;0.70;0.70;;;5.10;99.90;4.40;94101.00;;;;5096258;28;20211;-65
2022/11/22 05:13:19;;;;;;;0.60;0.60;;;5.10;99.90;4.40;94103.00;;;;5096167;28;20345;-65
2022/11/22 05:15:45;;;;;;;0.70;0.70;;;5.10;99.90;4.60;94102.00;;;;5096292;28;20212;-65
2022/11/22 05:18:12;;;;;;;1.00;1.00;;;5.30;99.40;4.60;94086.00;;;;5078394;28;20554;-67
2022/11/22 05:20:39;;;;;;;1.37;1.27;;;5.30;99.90;4.40;94100.00;;;;5096113;28;20226;-65
2022/11/22 05:25:50;;;;;;;0.80;0.80;;;5.20;99.90;4.30;94102.00;;;;5078342;28;20214;-65
2022/11/22 05:28:17;;;;;;;1.03;1.03;;;5.10;99.90;4.60;94104.00;;;;5095974;28;20232;-65
2022/11/22 05:30:43;;;;;;;0.90;0.90;;;5.30;98.00;4.50;94113.00;;;;5096091;28;20260;-65
2022/11/22 05:33:10;;;;;;;0.50;0.50;;;5.30;99.10;4.40;94112.00;;;;5096259;28;20206;-65
2022/11/22 05:35:36;;;;;;;0.80;0.80;;;5.20;98.20;4.30;94122.00;;;;5095756;28;20214;-65
2022/11/22 05:38:03;;;;;;;0.93;0.93;;;5.20;98.70;4.30;94110.00;;;;5095914;28;20581;-65
2022/11/22 05:40:29;;;;;;;0.70;0.70;;;5.10;99.20;4.30;94106.00;;;;5095850;28;20225;-65
2022/11/22 05:42:56;;;;;;;0.50;0.50;;;5.10;99.20;4.20;94112.00;;;;5095020;28;20202;-65
2022/11/22 05:45:24;;;;;;;0.77;0.77;;;5.10;99.50;4.20;94120.00;;;;5095971;28;20525;-65
2022/11/22 05:47:50;;;;;;;0.93;0.93;;;5.10;98.60;4.20;94124.00;;;;5094851;28;20208;-65
2022/11/22 05:50:17;;;;;;;0.60;0.60;;;5.10;98.70;4.10;94113.00;;;;5094774;28;20214;-66
2022/11/22 05:52:45;;;;;;;0.90;0.90;;;5.00;99.20;4.20;94115.00;;;;5095792;28;20190;-65
2022/11/22 05:55:12;;;;;;;5.47;0.90;;;5.00;99.60;4.20;94121.00;;;;5094711;28;20572;-64
2022/11/22 05:57:40;;;;;;;0.70;0.70;;;5.10;99.80;4.20;94119.00;;;;5095581;28;20230;-64
2022/11/22 06:00:08;;;;;;;1.60;1.50;;;5.10;99.20;4.30;94124.00;;;;5094494;28;20222;-64
2022/11/22 06:02:36;;;;;;;0.70;0.70;;;5.10;99.90;4.40;94129.00;;;;5094257;28;20675;-64
2022/11/22 06:05:02;;;;;;;0.60;0.60;;;5.30;99.90;4.30;94135.00;;;;5095708;28;20602;-64
2022/11/22 06:07:29;;;;;;;0.80;0.80;;;5.20;99.30;4.20;94134.00;;;;5095406;28;20222;-64
2022/11/22 06:09:56;;;;;;;0.70;0.70;;;5.10;99.50;4.10;94135.00;;;;5094583;28;20229;-65
2022/11/22 06:12:22;;;;;;;0.70;0.70;;;5.00;99.90;4.20;94151.00;;;;5095607;28;20199;-65
2022/11/22 06:14:48;;;;;;;0.60;0.60;;;5.00;99.90;4.20;94146.00;;;;5094511;28;20226;-66
2022/11/22 06:17:15;;;;;;;0.97;0.97;;;5.10;99.90;4.30;94143.00;;;;5094342;28;20198;-65
2022/11/22 06:19:42;;;;;;;2.63;1.73;;;5.10;99.90;4.30;94154.00;;;;5095376;28;20292;-65
2022/11/22 06:22:09;;;;;;;0.50;0.50;;;5.10;99.90;4.30;94159.00;;;;5095362;28;20634;-65
2022/11/22 06:24:37;;;;;;;0.80;0.80;;;5.20;99.90;4.40;94151.00;;;;5095257;28;20287;-65
2022/11/22 06:27:04;;;;;;;3.07;1.03;;;5.20;99.90;4.40;94165.00;;;;5095206;28;20202;-65
2022/11/22 06:29:30;;;;;;;22.43;1.30;;;5.30;99.90;4.30;94167.00;;;;5095179;28;20196;-65
2022/11/22 06:31:59;;;;;;;0.60;0.60;;;5.20;99.90;4.30;94170.00;;;;5094290;28;20195;-66
2022/11/22 06:34:26;;;;;;;0.60;0.60;;;;;4.30;94179.00;;;;5095202;28;20210;-65
2022/11/22 06:36:53;;;;;;;1.63;1.40;;;5.20;99.60;4.30;94189.00;;;;5094845;28;20222;-68
2022/11/22 06:39:20;;;;;;;1.57;1.47;;;5.20;99.90;4.30;94183.00;;;;5094951;28;20226;-66
2022/11/22 06:41:46;;;;;;;0.70;0.70;;;5.20;99.90;4.30;94198.00;;;;5094790;28;20235;-64
2022/11/22 06:44:13;;;;;;;0.90;0.90;;;5.20;99.90;4.30;94203.00;;;;5094768;28;20213;-65
2022/11/22 06:46:39;;;;;;;0.60;0.60;;;5.20;99.90;4.30;94204.00;;;;5094870;28;20211;-64
2022/11/22 06:49:05;;;;;;;0.93;0.93;;;5.20;99.90;4.30;94207.00;;;;5095006;28;20190;-64
2022/11/22 06:51:32;;;;;;;0.50;0.50;;;5.20;99.90;4.30;94212.00;;;;5076979;28;20234;-68
2022/11/22 06:53:59;;;;;;;1.17;1.17;;;5.20;99.90;4.30;94206.00;;;;5094722;28;20657;-64
2022/11/22 06:56:29;;;;;;;1.53;1.43;;;5.20;99.90;4.30;94220.00;;;;5094872;28;20222;-65
2022/11/22 06:58:56;;;;;;;1.33;1.23;;;5.20;99.90;4.30;94221.00;;;;5077133;28;20280;-65
2022/11/22 07:01:25;;;;;;;0.77;0.77;;;5.20;99.90;4.30;94220.00;;;;5093576;28;20227;-65
2022/11/22 07:03:56;;;;;;;1.13;1.07;;;5.30;99.90;4.30;94222.00;;;;5094595;28;20194;-65
2022/11/22 07:06:27;;;;;;;0.93;0.70;;;5.20;99.90;4.40;94222.00;;;;5094660;28;20716;-65
2022/11/22 07:08:54;;;;;;;0.60;0.60;;;5.20;99.90;4.50;94198.00;;;;5094460;28;20215;-68
2022/11/22 07:11:25;;;;;;;0.97;0.97;;;5.30;99.90;4.40;94228.00;;;;5077138;28;20522;-66
2022/11/22 07:13:53;;;;;;;0.50;0.50;;;5.20;99.90;4.40;94226.00;;;;5094376;28;20199;-66
2022/11/22 07:16:21;;;;;;;10.63;1.20;;;5.20;99.90;4.20;94236.00;;;;5094485;28;20205;-66
2022/11/22 07:18:48;;;;;;;0.50;0.50;;;5.10;99.40;4.40;94240.00;;;;5094317;28;20221;-66
2022/11/22 07:21:16;;;;;;;0.80;0.80;;;5.10;99.90;4.30;94234.00;;;;5094247;28;20223;-66
2022/11/22 07:23:45;;;;;;;1.57;1.47;;;5.20;99.20;4.30;94237.00;;;;5094256;28;20590;-66
2022/11/22 07:26:14;;;;;;;1.13;1.13;;;5.10;99.40;4.30;94242.00;;;;5093258;28;20210;-66
2022/11/22 07:28:42;;;;;;;1.07;0.93;;;5.20;99.80;4.40;94253.00;;;;5094082;28;20695;-66
2022/11/22 07:31:13;;;;;;;0.90;0.90;;;5.20;99.90;4.50;94256.00;;;;5094154;28;20282;-66
2022/11/22 07:33:40;;;;;;;1.40;1.37;;;5.30;99.90;4.60;94263.00;;;;5093922;28;20254;-66
2022/11/22 07:36:10;;;;;;;1.00;1.00;;;5.40;99.90;4.60;94250.00;;;;5076256;28;20225;-66
2022/11/22 07:38:36;;;;;;;0.73;0.73;;;5.40;99.40;4.70;94262.00;;;;5093995;28;20233;-66
2022/11/22 07:41:04;;;;;;;0.80;0.80;;;5.50;99.20;4.60;94266.00;;;;5094097;28;20315;-66
2022/11/22 07:43:34;;;;;;;1.67;1.57;;;5.40;98.30;4.60;94267.00;;;;5093833;28;20246;-66
2022/11/22 07:46:06;;;;;;;31.20;2.83;;;5.40;98.30;4.70;94266.00;;;;5093955;28;20214;-65
2022/11/22 07:48:35;;;;;;;0.80;0.80;;;5.40;98.70;4.70;94261.00;;;;5093926;28;20244;-66
2022/11/22 07:51:06;;;;;;;9.00;1.00;;;5.50;98.40;4.70;94273.00;;;;5093795;28;20202;-66
2022/11/22 07:53:33;;;;;;;6.13;1.10;;;5.50;98.90;4.80;94276.00;;;;5093815;28;20243;-66
2022/11/22 07:56:03;;;;;;;0.90;0.90;;;5.60;98.40;4.90;94291.00;;;;5093879;28;20297;-67
2022/11/22 07:58:30;;;;;;;0.53;0.53;;;5.70;97.90;4.90;94297.00;;;;5093755;28;20228;-66
2022/11/22 08:00:56;;;;;;;0.80;0.80;;;5.70;97.60;4.80;94288.00;;;;5093682;28;20214;-65
2022/11/22 08:03:24;;;;;;;0.60;0.60;;;5.60;97.50;4.90;94291.00;;;;5093155;28;20513;-65
2022/11/22 08:05:50;;;;;;;0.70;0.70;;;5.70;97.60;4.90;94294.00;;;;5092796;28;20340;-68
2022/11/22 08:08:17;;;;;;;0.90;0.90;;;5.70;98.00;5.00;94290.00;;;;5093684;28;20655;-68
2022/11/22 08:10:44;;;;;;;1.03;1.03;;;5.70;98.10;5.10;94281.00;;;;5076117;28;20194;-72
2022/11/22 08:13:10;;;;;;;1.17;1.17;;;5.80;98.00;5.10;94295.00;;;;5093569;28;20208;-68
2022/11/22 08:15:37;;;;;;;0.70;0.70;;;5.90;98.00;5.20;94300.00;;;;5093446;28;20545;-67
2022/11/22 08:18:03;;;;;;;0.90;0.90;;;5.90;97.20;5.10;94292.00;;;;5093379;28;20194;-64
2022/11/22 08:20:30;;;;;;;1.07;1.07;;;6.00;97.30;5.20;94295.00;;;;5093681;28;20220;-64
2022/11/22 08:22:57;;;;;;;0.53;0.53;;;6.00;97.40;5.10;94303.00;;;;5093639;28;20210;-65
2022/11/22 08:25:23;;;;;;;0.57;0.57;;;5.80;96.20;5.00;94303.00;;;;5095261;28;20248;-66
2022/11/22 08:27:50;;;;;;;0.90;0.90;;;5.80;96.90;5.00;94297.00;;;;5079355;28;20204;-65
2022/11/22 08:30:16;;;;;;;1.43;0.70;;;5.80;97.40;4.80;94285.00;;;;5097140;28;20220;-64
2022/11/22 08:32:43;;;;;;;0.60;0.60;;;5.70;97.50;4.90;94290.00;;;;5097162;28;20206;-64
2022/11/22 08:35:09;;;;;;;2.73;1.37;;;5.60;98.30;4.90;94298.00;;;;5097075;28;20195;-64
2022/11/22 08:37:36;;;;;;;1.20;1.10;;;5.70;98.80;5.00;94295.00;;;;5096239;28;20225;-64
2022/11/22 08:40:04;;;;;;;1.10;1.10;;;5.80;98.80;5.10;94295.00;;;;5096888;28;20210;-64
2022/11/22 08:42:31;;;;;;;0.60;0.60;;;5.90;97.60;5.20;94286.00;;;;5096885;28;20309;-64
2022/11/22 08:44:57;;;;;;;1.43;1.33;;;6.00;98.30;5.30;94280.00;;;;5096882;28;20525;-64
2022/11/22 08:47:24;;;;;;;0.50;0.50;;;6.00;98.30;5.40;94275.00;;;;5096815;28;20202;-62
2022/11/22 08:49:50;;;;;;;1.37;1.03;;;6.10;96.70;5.40;94278.00;;;;5096817;28;20218;-64
2022/11/22 08:52:17;;;;;;;0.63;0.63;;;6.10;97.50;5.40;94269.00;;;;5096765;28;20621;-63
2022/11/22 08:54:44;;;;;;;2.57;1.90;;;6.00;96.70;5.20;94279.00;;;;5096594;28;20591;-63
2022/11/22 08:57:10;;;;;;;3.00;0.93;;;6.00;97.50;5.30;94258.00;;;;5096525;28;20207;-63
2022/11/22 08:59:39;;;;;;;1.83;1.43;;;6.00;98.60;5.40;94262.00;;;;5078712;28;20196;-63
2022/11/22 09:02:06;;;;;;;0.60;0.60;;;6.10;98.50;5.50;94259.00;;;;5096403;28;20234;-65
2022/11/22 09:04:35;;;;;;;1.23;0.70;;;6.20;96.70;5.50;94270.00;;;;5096336;28;20211;-63
2022/11/22 09:07:02;;;;;;;0.60;0.60;;;6.20;94.10;5.30;94261.00;;;;5096244;28;20268;-63
2022/11/22 09:09:28;;;;;;;1.70;1.00;;;5.90;94.50;5.20;94255.00;;;;5096415;28;20708;-63
2022/11/22 09:11:58;;;;;;;0.80;0.80;;;6.00;95.30;5.10;94264.00;;;;5096275;28;20223;-63
2022/11/22 09:14:24;;;;;;;0.60;0.60;;;5.90;95.50;5.10;94259.00;;;;5096473;28;20199;-63
2022/11/22 09:16:51;;;;;;;0.50;0.50;;;5.90;95.90;5.00;94258.00;;;;5096228;28;20192;-63
2022/11/22 09:19:17;;;;;;;0.60;0.60;;;5.80;96.30;5.10;94251.00;;;;5096163;28;20240;-66
2022/11/22 09:21:44;;;;;;;1.00;1.00;;;5.90;95.40;5.10;94254.00;;;;5096043;28;20288;-63
2022/11/22 09:24:10;;;;;;;0.60;0.60;;;5.90;95.30;5.30;94254.00;;;;5096145;28;20219;-63
2022/11/22 09:26:36;;;;;;;0.67;0.67;;;6.10;95.50;5.30;94266.00;;;;5096007;28;20237;-63
2022/11/22 09:29:04;;;;;;;0.80;0.80;;;6.00;95.50;5.30;94271.00;;;;5095186;28;20317;-64
2022/11/22 09:31:31;;;;;;;0.50;0.50;;;6.00;94.20;5.20;94276.00;;;;5096001;28;20200;-63
2022/11/22 09:33:58;;;;;;;0.60;0.60;;;5.90;94.90;5.10;94275.00;;;;5095998;28;20631;-63
2022/11/22 09:36:26;;;;;;;0.70;0.70;;;6.00;95.60;5.30;94273.00;;;;5077832;28;20210;-63
2022/11/22 09:38:55;;;;;;;0.60;0.60;;;6.10;95.80;5.40;94283.00;;;;5095986;28;20213;-64
2022/11/22 09:42:05;;;;;;;0.60;0.60;;;6.10;95.90;5.50;94294.00;;;;5095876;28;20770;-62
2022/11/22 09:44:53;;;;;;;0.70;0.70;;;6.20;94.00;5.40;94292.00;;;;5095870;28;20183;-64
2022/11/22 09:47:34;;;;;;;5.50;1.43;;;6.20;93.90;5.60;94297.00;;;;5095778;28;20225;-67
2022/11/22 09:50:09;;;;;;;1.77;1.67;;;;;5.70;94295.00;;;;5095731;28;20195;-64
2022/11/22 09:52:43;;;;;;;0.57;0.57;;;6.30;90.30;5.40;94293.00;;;;5095626;28;20686;-63
2022/11/22 09:55:22;;;;;;;0.60;0.60;;;6.30;90.60;5.50;94301.00;;;;5095764;28;20645;-63
2022/11/22 09:58:01;;;;;;;1.73;0.77;;;6.30;89.70;5.70;94310.00;;;;5095664;28;20290;-64
2022/11/22 10:00:29;;;;;;;0.63;0.63;;;6.20;88.80;5.40;94305.00;;;;5095607;28;20218;-63
2022/11/22 10:03:05;;;;;;;0.67;0.67;;;6.20;90.20;5.50;94317.00;;;;5095544;28;20206;-63
2022/11/22 10:05:46;;;;;;;1.07;1.00;;;6.20;91.50;5.70;94318.00;;;;5095518;28;20210;-64
2022/11/22 10:08:31;;;;;;;0.83;0.83;;;6.40;90.60;5.70;94302.00;;;;5095569;28;20229;-64
2022/11/22 10:11:02;;;;;;;0.50;0.50;;;6.40;89.30;5.50;94323.00;;;;5094425;28;20218;-63
2022/11/22 10:13:40;;;;;;;0.60;0.60;;;6.30;89.60;5.70;94326.00;;;;5095661;28;20572;-63
2022/11/22 10:16:15;;;;;;;0.77;0.77;;;6.20;89.50;5.40;94325.00;;;;5094514;28;20234;-63
2022/11/22 10:18:50;;;;;;;0.60;0.60;;;;;5.90;94323.00;;;;5095461;28;20209;-64
2022/11/22 10:21:20;;;;;;;0.50;0.50;;;6.40;89.20;5.60;94334.00;;;;5095398;28;20238;-63
2022/11/22 10:23:47;;;;;;;0.60;0.60;;;6.40;88.90;5.70;94335.00;;;;5095326;28;20651;-64
2022/11/22 10:26:21;;;;;;;0.50;0.50;;;;;5.70;94352.00;;;;5095449;28;20199;-63
2022/11/22 10:29:02;;;;;;;1.00;1.00;;;6.30;86.50;5.60;94332.00;;;;5095521;28;20288;-63
2022/11/22 10:31:43;;;;;;;0.60;0.60;;;6.30;88.50;5.30;94352.00;;;;5095239;28;20218;-63
2022/11/22 10:34:29;;;;;;;0.60;0.60;;;6.10;89.70;5.80;94339.00;;;;5095283;28;20198;-63
2022/11/22 10:37:06;;;;;;;0.60;0.60;;;6.40;89.80;5.90;94330.00;;;;5095142;28;20254;-63
2022/11/22 10:39:58;;;;;;;0.60;0.60;;;6.50;89.70;5.80;94352.00;;;;5095042;28;20225;-64
2022/11/22 10:42:54;;;;;;;0.60;0.60;;;6.60;88.30;5.70;94335.00;;;;5094956;28;20301;-64
2022/11/22 10:45:31;;;;;;;0.50;0.50;;;6.40;89.80;5.80;94341.00;;;;5094166;28;20236;-63
2022/11/22 10:48:11;;;;;;;0.60;0.60;;;6.50;89.60;6.10;94328.00;;;;5094173;28;20723;-63
2022/11/22 10:50:57;;;;;;;1.57;1.47;;;6.70;87.70;5.80;94323.00;;;;5094884;28;20225;-63
2022/11/22 10:53:48;;;;;;;0.60;0.60;;;6.60;88.20;6.40;94328.00;;;;5094854;28;20202;-63
2022/11/22 10:56:29;;;;;;;2.50;1.43;;;6.90;87.60;6.10;94329.00;;;;5076754;28;20671;-63
2022/11/22 10:59:23;;;;;;;1.40;1.40;;;6.80;86.90;6.00;94331.00;;;;5093775;28;20210;-63
2022/11/22 11:02:01;;;;;;;1.27;1.17;;;6.80;85.20;6.20;94320.00;;;;5077705;28;20238;-63
2022/11/22 11:04:35;;;;;;;0.77;0.77;;;6.90;84.90;6.30;94327.00;;;;5094697;28;20186;-63
2022/11/22 11:07:05;;;;;;;0.60;0.60;;;7.00;85.40;6.20;94322.00;;;;5093502;28;20210;-63
2022/11/22 11:09:37;;;;;;;0.60;0.60;;;6.90;85.10;6.20;94323.00;;;;5094544;28;20195;-63
2022/11/22 11:12:15;;;;;;;0.87;0.87;;;6.90;84.70;6.40;94319.00;;;;5094431;28;20206;-64
2022/11/22 11:14:47;;;;;;;0.60;0.60;;;7.10;85.50;6.50;94322.00;;;;5094630;28;20232;-64
2022/11/22 11:17:20;;;;;;;0.80;0.80;;;6.70;82.70;6.00;94327.00;;;;5094462;28;20284;-64
2022/11/22 11:19:51;;;;;;;0.60;0.60;;;6.70;83.40;6.00;94326.00;;;;5094403;28;20230;-64
2022/11/22 11:22:23;;;;;;;2.97;1.27;;;6.70;83.50;5.90;94312.00;;;;5094376;28;20214;-63
2022/11/22 11:24:50;;;;;;;0.80;0.80;;;;;5.70;94330.00;;;;5094600;28;20210;-65
2022/11/22 11:27:23;;;;;;;0.60;0.60;;;;;5.80;94325.00;;;;5076466;28;20551;-65
2022/11/22 11:29:54;;;;;;;0.87;0.87;;;;;6.10;94318.00;;;;5094634;28;20190;-64
2022/11/22 11:32:21;;;;;;;1.13;1.10;;;;;6.20;94307.00;;;;5094180;28;20214;-65
2022/11/22 11:34:54;;;;;;;0.60;0.60;;;;;6.00;94317.00;;;;5094306;28;20227;-64
2022/11/22 11:37:32;;;;;;;5.43;1.30;;;;;5.90;94313.00;;;;5094162;28;20231;-64
2022/11/22 11:40:00;;;;;;;1.10;1.07;;;;;5.70;94316.00;;;;5094120;28;20499;-65